Fall River Mills, CA

10:54 AM PST on March 03, 2015 (GMT -0800)
Redding Municipal | Change Station
CLOSE
Current Station
Airport
Location: Redding,
Elevation: 502 ft
Nearby Weather Stations

Elev 502 ft 40.51 °N, 122.30 °W | Updated 1 hour ago

Clear
Clear
59 °F
Feels Like 59 °F
N
15
Wind Variable Wind from NNE

Today
High -- | Low -- °F
--% Chance of Precip.
Yesterday
High -- | Low -- °F
Precip. -- in
6:37 AM 5:59 PM
Waxing Gibbous, 97% visible
Pressure 30.07 in
Visibility 10.0 miles
Clouds Clear
Dew Point 30 °F
Humidity 33%
Rainfall 0.00 in
Snow Depth Not available.
UV 3 out of 12
Pollen 7.80 out of 12
Air Quality Not available.
Flu Activity Not available.
METAR KRDD 031753Z 02013KT 10SM CLR 15/M01 A3007 RMK AO2 SLP181 T01501011 10150 20033 50008

More Conditions Fewer Conditions

Pressure 30.07 in
Visibility 10.0 miles
Clouds Clear
Dew Point 30 °F
Humidity 33%
Rainfall 0.00 in
Snow Depth Not available.
UV 3 out of 12
Pollen 7.80 out of 12
Air Quality Not available.
Flu Activity Not available.
METAR KRDD 031753Z 02013KT 10SM CLR 15/M01 A3007 RMK AO2 SLP181 T01501011 10150 20033 50008

More Conditions Fewer Conditions

10-Day Weather Forecast

Almanac

Astronomy

Mar. 03, 2015 Rise Set
Actual Time
Civil Twilight
Nautical Twilight
Astronomical Twilight
Moon
Length of Visible Light
Length of Day
Tomorrow will be .
, % of the Moon is Illuminated

Today's Extremes

State Highs State Lows

Community

WunderPhotos

Upload Photos

1,802,198 photos uploaded!

WunderBlogs® & News

Nearby

Air Quality

  Air Quality AQ Index Pollutant
Not available.

Snow Depth

Station Depth Elevation

Earthquake Activity

City Distance Mag. Time & Date
Minimum magnitude displayed is 2.5.

Coastal Water Temperatures

Place Temperature

Nearby Weather Stations